Time;durP1;ratioP1;P1;durP2;ratioP2;P2;SDS_P1;SDS_P2;PMS_P1;PMS_P2;Temp;Humidity;BMP_temperature;BMP_pressure;BME280_temperature;BME280_humidity;BME280_pressure;Samples;Min_cycle;Max_cycle;Signal;HPM_P1;HPM_P2
2024/04/23 00:05:00;;;;;;;0.00;0.00;;;;;;;2.26;74.34;101753.91;16763797;26;20080;-75
2024/04/23 00:12:38;;;;;;;0.00;0.00;;;;;;;2.08;75.20;101756.31;16760169;26;20084;-75
2024/04/23 00:20:14;;;;;;;0.10;0.10;;;;;;;1.92;76.42;101745.34;16771208;26;20067;-75
2024/04/23 00:27:53;;;;;;;0.00;0.00;;;;;;;1.99;74.03;101730.63;16807900;26;20051;-75
2024/04/23 00:35:30;;;;;;;0.22;0.22;;;;;;;2.06;73.82;101736.25;16760380;26;20086;-75
2024/04/23 00:43:09;;;;;;;0.00;0.00;;;;;;;1.85;74.26;101718.53;16746346;26;20071;-75
2024/04/23 00:50:45;;;;;;;0.00;0.00;;;;;;;1.74;74.43;101731.84;16808076;26;20048;-75
2024/04/23 00:58:25;;;;;;;0.00;0.00;;;;;;;1.50;75.01;101717.06;16790283;26;20000;-75
2024/04/23 01:06:01;;;;;;;0.00;0.00;;;;;;;1.57;75.39;101724.47;16745390;26;19999;-75
2024/04/23 01:13:42;;;;;;;0.00;0.00;;;;;;;1.60;75.34;101729.53;16765217;26;20004;-75
2024/04/23 01:21:21;;;;;;;2.20;1.77;;;;;;;1.73;74.64;101723.06;16777404;26;20017;-75
2024/04/23 01:28:59;;;;;;;1.65;0.45;;;;;;;1.58;74.37;101713.75;16815034;26;20078;-75
2024/04/23 01:36:35;;;;;;;0.00;0.00;;;;;;;1.40;75.12;101713.50;16773482;26;20047;-75
2024/04/23 01:44:12;;;;;;;0.00;0.00;;;;;;;1.27;75.88;101713.66;16852548;26;20035;-75
2024/04/23 01:51:52;;;;;;;0.00;0.00;;;;;;;1.25;75.88;101705.00;16828635;26;19994;-74
2024/04/23 01:59:31;;;;;;;0.00;0.00;;;;;;;1.18;75.84;101701.19;16843172;26;20327;-74
2024/04/23 02:07:08;;;;;;;0.00;0.00;;;;;;;0.75;76.86;101702.03;16761722;26;20007;-74
2024/04/23 02:14:49;;;;;;;0.00;0.00;;;;;;;1.21;75.09;101700.06;16818028;26;20006;-75
2024/04/23 02:22:24;;;;;;;0.08;0.08;;;;;;;1.00;75.56;101695.59;16791238;26;19999;-74
2024/04/23 02:30:02;;;;;;;0.00;0.00;;;;;;;1.12;74.76;101692.91;16810980;26;19995;-74
2024/04/23 02:37:39;;;;;;;0.00;0.00;;;;;;;0.99;75.45;101693.91;16767474;26;20000;-74
2024/04/23 02:45:20;;;;;;;0.00;0.00;;;;;;;0.81;74.87;101647.84;16789506;26;20039;-75
2024/04/23 02:52:56;;;;;;;0.00;0.00;;;;;;;0.64;75.41;101682.69;16770633;26;20011;-74
2024/04/23 03:00:35;;;;;;;0.00;0.00;;;;;;;0.79;75.01;101677.97;16814053;26;20003;-75
2024/04/23 03:08:10;;;;;;;0.10;0.10;;;;;;;0.60;75.62;101681.25;16753232;26;19996;-75
2024/04/23 03:15:51;;;;;;;0.00;0.00;;;;;;;0.25;76.71;101675.16;16816095;26;20053;-75
2024/04/23 03:23:29;;;;;;;0.00;0.00;;;;;;;0.34;76.63;101673.59;16731814;26;20040;-75
2024/04/23 03:31:07;;;;;;;0.20;0.20;;;;;;;0.48;75.56;101669.88;16797818;26;20458;-75
2024/04/23 03:38:42;;;;;;;0.00;0.00;;;;;;;0.67;74.98;101666.59;16761531;26;20003;-75
2024/04/23 03:46:23;;;;;;;0.00;0.00;;;;;;;0.20;75.86;101650.94;16743464;26;20035;-75
2024/04/23 03:53:59;;;;;;;0.47;0.22;;;;;;;0.31;75.55;101647.44;16832597;26;20004;-75
2024/04/23 04:01:37;;;;;;;0.22;0.22;;;;;;;0.54;74.87;101650.88;16805273;26;20007;-75
2024/04/23 04:09:11;;;;;;;0.00;0.00;;;;;;;0.69;74.12;101656.75;16819043;26;20625;-75
2024/04/23 04:16:50;;;;;;;0.00;0.00;;;;;;;0.58;73.90;101644.41;16802856;26;20479;-74
2024/04/23 04:24:28;;;;;;;0.00;0.00;;;;;;;0.64;74.93;101645.69;16856436;26;20491;-75
2024/04/23 04:32:10;;;;;;;0.10;0.10;;;;;;;0.61;74.93;101643.34;16780454;26;20014;-75
2024/04/23 04:39:45;;;;;;;0.00;0.00;;;;;;;0.50;75.11;101645.00;16800200;26;20003;-75
2024/04/23 04:47:24;;;;;;;0.00;0.00;;;;;;;0.66;76.90;101660.47;16819853;26;20003;-75
2024/04/23 04:55:00;;;;;;;0.00;0.00;;;;;;;0.70;75.96;101658.41;16762485;26;20049;-75
2024/04/23 05:02:40;;;;;;;0.28;0.28;;;;;;;1.05;74.75;101660.84;16807550;26;19996;-75
2024/04/23 05:10:16;;;;;;;0.20;0.20;;;;;;;1.11;74.93;101668.25;16742035;26;20003;-75
2024/04/23 05:17:55;;;;;;;0.10;0.10;;;;;;;1.37;75.03;101679.34;16797903;26;19999;-75
2024/04/23 05:25:31;;;;;;;0.38;0.38;;;;;;;1.24;76.36;101658.38;16755964;26;20058;-75
2024/04/23 05:33:10;;;;;;;0.05;0.05;;;;;;;2.40;73.90;101641.47;16779807;26;20078;-75
2024/04/23 05:40:45;;;;;;;0.00;0.00;;;;;;;3.46;67.59;101665.44;16790915;26;19996;-75
2024/04/23 05:48:58;;;;;;;0.30;0.30;;;;;;;2.97;71.82;101682.31;16828040;26;20077;-75
2024/04/23 05:56:55;;;;;;;0.00;0.00;;;;;;;3.77;67.90;101670.56;16750107;26;20025;-75
2024/04/23 06:04:31;;;;;;;0.20;0.20;;;;;;;4.62;65.25;101674.88;16805345;26;20010;-75
2024/04/23 06:12:11;;;;;;;0.00;0.00;;;;;;;5.77;65.08;101664.28;16807413;26;19999;-76
2024/04/23 06:19:50;;;;;;;0.93;0.52;;;;;;;6.64;60.55;101671.28;16834653;26;20334;-78
2024/04/23 06:27:36;;;;;;;0.00;0.00;;;;;;;9.10;55.02;101671.75;16794769;26;20034;-77
2024/04/23 06:35:13;;;;;;;0.00;0.00;;;;;;;9.51;52.10;101680.31;16829708;26;19999;-76
2024/04/23 06:42:53;;;;;;;0.20;0.20;;;;;;;10.17;50.72;101669.81;16760983;26;20852;-77
2024/04/23 06:50:28;;;;;;;0.00;0.00;;;;;;;8.01;55.97;101646.63;16818503;26;20343;-76
2024/04/23 06:58:07;;;;;;;0.20;0.20;;;;;;;9.07;53.39;101662.22;16764721;26;20045;-75
2024/04/23 07:05:43;;;;;;;0.00;0.00;;;;;;;9.12;52.92;101654.47;16799651;26;20003;-75
2024/04/23 07:13:22;;;;;;;0.10;0.10;;;;;;;9.38;48.34;101653.31;16800601;26;20090;-75
2024/04/23 07:20:57;;;;;;;0.00;0.00;;;;;;;10.08;46.42;101652.13;16785525;26;20019;-74
2024/04/23 07:28:37;;;;;;;0.00;0.00;;;;;;;10.15;47.34;101645.81;16896777;26;20006;-75
2024/04/23 07:36:14;;;;;;;0.00;0.00;;;;;;;9.95;41.38;101530.22;16871402;26;20461;-74
2024/04/23 07:43:52;;;;;;;0.43;0.25;;;;;;;11.30;42.13;101642.44;16910503;26;20097;-74
2024/04/23 07:51:30;;;;;;;0.00;0.00;;;;;;;11.19;41.21;101627.69;16820506;26;20450;-75
2024/04/23 07:59:10;;;;;;;2.25;1.08;;;;;;;12.04;40.17;101625.03;16773184;26;20014;-74
2024/04/23 08:06:46;;;;;;;0.25;0.25;;;;;;;11.31;41.00;101608.31;16799637;26;20028;-75
2024/04/23 08:14:25;;;;;;;0.17;0.17;;;;;;;12.32;37.70;101601.56;16768449;26;20094;-74
2024/04/23 08:22:02;;;;;;;0.52;0.45;;;;;;;12.38;39.10;101594.56;16761184;26;20441;-75
2024/04/23 08:29:40;;;;;;;0.00;0.00;;;;;;;12.84;34.99;101585.78;16898072;26;20003;-75
2024/04/23 08:37:18;;;;;;;0.73;0.55;;;;;;;12.22;35.44;101576.91;16825866;26;20422;-75
2024/04/23 08:44:59;;;;;;;0.03;0.03;;;;;;;11.25;36.72;101569.63;16768372;26;20000;-75
2024/04/23 08:52:35;;;;;;;0.00;0.00;;;;;;;12.05;35.07;101559.41;16766438;26;20004;-75
2024/04/23 09:00:14;;;;;;;0.00;0.00;;;;;;;12.44;35.85;101559.56;16772000;26;20018;-75
2024/04/23 09:07:50;;;;;;;0.10;0.10;;;;;;;13.42;33.65;101545.59;16777439;26;20018;-75
2024/04/23 09:15:28;;;;;;;0.00;0.00;;;;;;;12.66;33.91;101536.00;16806718;26;20010;-74
2024/04/23 09:23:04;;;;;;;0.00;0.00;;;;;;;13.85;32.97;101500.06;16749376;26;20000;-75
2024/04/23 09:30:45;;;;;;;0.15;0.15;;;;;;;14.47;32.39;101512.00;16829910;26;20134;-75
2024/04/23 09:38:21;;;;;;;0.03;0.03;;;;;;;14.14;32.02;101511.38;16808508;26;20015;-75
2024/04/23 09:46:05;;;;;;;0.00;0.00;;;;;;;14.92;31.11;101490.31;16769704;26;20030;-75
2024/04/23 09:53:41;;;;;;;0.00;0.00;;;;;;;12.24;30.24;101477.91;16849562;26;20080;-75
2024/04/23 10:01:23;;;;;;;0.00;0.00;;;;;;;12.64;31.07;101478.84;16879596;26;19999;-75
2024/04/23 10:09:04;;;;;;;0.90;0.70;;;;;;;12.74;34.19;101473.88;16850961;26;19999;-75
2024/04/23 10:16:48;;;;;;;0.10;0.10;;;;;;;13.49;30.39;101460.13;16850823;26;20010;-75
2024/04/23 10:24:26;;;;;;;0.22;0.22;;;;;;;13.44;32.73;101435.66;16851184;26;20344;-76
2024/04/23 10:32:06;;;;;;;0.03;0.00;;;;;;;13.01;29.58;101422.66;16797540;26;20075;-76
2024/04/23 10:39:42;;;;;;;0.25;0.25;;;;;;;14.04;33.52;101423.56;16794112;26;20038;-76
2024/04/23 10:47:23;;;;;;;0.30;0.30;;;;;;;13.77;32.41;101404.00;16786845;26;19999;-76
2024/04/23 10:54:59;;;;;;;0.10;0.10;;;;;;;12.38;33.87;101401.53;16797876;26;20447;-76
2024/04/23 11:02:40;;;;;;;0.00;0.00;;;;;;;11.95;31.56;101384.91;16841092;26;20030;-76
2024/04/23 11:10:23;;;;;;;0.00;0.00;;;;;;;13.49;30.28;101363.03;16847065;26;19999;-76
2024/04/23 11:18:08;;;;;;;0.25;0.25;;;;;;;14.75;29.54;101364.91;16839728;26;20007;-76
2024/04/23 11:25:44;;;;;;;0.25;0.25;;;;;;;11.29;31.26;101360.44;16811167;26;20075;-76
2024/04/23 11:33:25;;;;;;;1.95;0.35;;;;;;;13.18;31.78;101347.56;16877139;26;20003;-76
2024/04/23 11:41:09;;;;;;;0.10;0.10;;;;;;;13.48;29.06;101347.91;16801328;26;20459;-76
2024/04/23 11:48:47;;;;;;;0.00;0.00;;;;;;;13.25;31.35;101343.84;16804280;26;19999;-76
2024/04/23 11:56:22;;;;;;;0.10;0.10;;;;;;;11.90;31.69;101334.41;16814817;26;19999;-76
2024/04/23 12:04:01;;;;;;;0.00;0.00;;;;;;;14.43;30.23;101319.00;16791963;26;20003;-76
2024/04/23 12:11:39;;;;;;;0.10;0.10;;;;;;;14.42;29.75;101309.25;16793008;26;19996;-76
2024/04/23 12:19:19;;;;;;;0.25;0.25;;;;;;;16.22;28.76;101305.97;16762471;26;20015;-76
2024/04/23 12:26:55;;;;;;;0.00;0.00;;;;;;;12.12;29.99;101283.91;16731227;26;20008;-76
2024/04/23 12:34:33;;;;;;;0.08;0.08;;;;;;;12.49;33.44;101278.91;16785843;26;20081;-76
2024/04/23 12:42:14;;;;;;;0.10;0.03;;;;;;;12.32;31.78;101258.88;16857796;26;20079;-76
2024/04/23 12:49:53;;;;;;;0.20;0.20;;;;;;;12.85;33.57;101245.25;16809091;26;20034;-75
2024/04/23 12:57:28;;;;;;;0.05;0.05;;;;;;;12.59;31.51;101247.00;16799905;26;19999;-75
2024/04/23 13:05:08;;;;;;;1.20;0.40;;;;;;;13.07;30.32;101235.03;16800404;26;20051;-75
2024/04/23 13:12:46;;;;;;;0.40;0.40;;;;;;;11.35;31.12;101215.34;16768460;26;20003;-77
2024/04/23 13:20:24;;;;;;;0.05;0.05;;;;;;;14.17;32.21;101206.66;16769763;26;20008;-76
2024/04/23 13:28:01;;;;;;;0.08;0.08;;;;;;;12.99;30.96;101193.81;16715250;26;20129;-75
2024/04/23 13:35:40;;;;;;;0.68;0.38;;;;;;;12.39;29.84;101185.13;16793878;26;20000;-75
2024/04/23 13:43:17;;;;;;;0.00;0.00;;;;;;;13.51;29.63;101164.06;16767479;26;19995;-75
2024/04/23 13:50:55;;;;;;;0.00;0.00;;;;;;;13.65;30.81;101172.88;16868871;26;20043;-75
2024/04/23 13:58:32;;;;;;;2.50;0.35;;;;;;;13.68;31.52;101158.97;16908004;26;20014;-76
2024/04/23 14:06:10;;;;;;;0.40;0.20;;;;;;;13.25;32.68;101162.41;16877809;26;20545;-76
2024/04/23 14:13:47;;;;;;;0.35;0.20;;;;;;;12.30;32.02;101155.94;16878200;26;20071;-76
2024/04/23 14:21:25;;;;;;;0.00;0.00;;;;;;;12.19;31.39;101150.19;16879031;26;20705;-76
2024/04/23 14:29:02;;;;;;;0.00;0.00;;;;;;;11.76;32.65;101133.69;16725648;26;20006;-77
2024/04/23 14:36:42;;;;;;;0.80;0.73;;;;;;;10.73;34.80;101139.34;16821024;26;20010;-76
2024/04/23 14:44:19;;;;;;;0.90;0.68;;;;;;;11.87;32.63;101126.88;16804310;26;20018;-76
2024/04/23 14:52:03;;;;;;;0.32;0.32;;;;;;;10.57;33.61;101115.50;16885680;26;20040;-76
2024/04/23 14:59:41;;;;;;;0.20;0.20;;;;;;;10.43;34.63;101108.44;16907163;26;20003;-76
2024/04/23 15:07:19;;;;;;;0.15;0.15;;;;;;;10.02;36.13;101103.03;16875545;26;20003;-76
2024/04/23 15:14:55;;;;;;;0.00;0.00;;;;;;;10.91;34.94;101093.13;16847831;26;20454;-76
2024/04/23 15:22:36;;;;;;;0.25;0.20;;;;;;;10.59;35.16;101083.13;16907106;26;20013;-76
2024/04/23 15:30:19;;;;;;;0.00;0.00;;;;;;;11.83;35.34;101085.28;16905867;26;20021;-76
2024/04/23 15:37:57;;;;;;;1.00;0.75;;;;;;;10.40;34.79;101082.03;16839610;26;20007;-76
2024/04/23 15:45:35;;;;;;;0.00;0.00;;;;;;;10.97;36.51;101075.34;16786139;26;20000;-75
2024/04/23 15:53:13;;;;;;;0.10;0.10;;;;;;;10.17;34.44;101061.66;16903771;26;19999;-76
2024/04/23 16:00:48;;;;;;;0.70;0.17;;;;;;;10.64;36.94;101054.63;16902678;26;19999;-76
2024/04/23 16:08:31;;;;;;;0.03;0.03;;;;;;;11.07;36.18;101050.78;16875947;26;20454;-76
2024/04/23 16:16:14;;;;;;;0.00;0.00;;;;;;;10.32;36.28;101042.78;16881728;26;20017;-76
2024/04/23 16:23:52;;;;;;;0.03;0.03;;;;;;;10.30;37.70;101033.25;16881987;26;19998;-76
2024/04/23 16:31:29;;;;;;;0.20;0.20;;;;;;;10.92;36.13;101016.88;16879736;26;20550;-76
2024/04/23 16:39:07;;;;;;;0.00;0.00;;;;;;;10.60;36.51;101002.38;16813161;26;20011;-76
2024/04/23 16:46:42;;;;;;;0.30;0.30;;;;;;;10.51;35.74;101016.19;16826033;26;20415;-76
2024/04/23 16:54:22;;;;;;;0.32;0.30;;;;;;;10.44;37.94;101011.66;16769441;26;20044;-76
2024/04/23 17:01:58;;;;;;;0.00;0.00;;;;;;;10.36;37.51;101008.31;16742372;26;19999;-76
2024/04/23 17:09:35;;;;;;;0.00;0.00;;;;;;;10.50;36.91;100999.28;16766372;26;20003;-75
2024/04/23 17:17:12;;;;;;;0.95;0.32;;;;;;;10.20;38.14;100998.72;16890976;26;20030;-75
2024/04/23 17:24:55;;;;;;;0.00;0.00;;;;;;;10.01;38.91;100994.13;16854894;26;20003;-76
2024/04/23 17:32:31;;;;;;;0.00;0.00;;;;;;;9.95;39.61;100980.50;16843331;26;20032;-76
2024/04/23 17:40:11;;;;;;;0.00;0.00;;;;;;;9.77;40.49;100968.66;16840182;26;20007;-74
2024/04/23 17:47:50;;;;;;;0.00;0.00;;;;;;;9.56;41.38;100972.25;16841960;26;20000;-78
2024/04/23 17:55:36;;;;;;;0.05;0.05;;;;;;;9.63;41.47;100971.25;16782719;26;20026;-78
2024/04/23 18:03:11;;;;;;;0.00;0.00;;;;;;;9.86;40.20;100959.41;16844478;26;19999;-76
2024/04/23 18:10:52;;;;;;;0.00;0.00;;;;;;;9.89;40.40;100953.66;16804650;26;20080;-76
2024/04/23 18:18:27;;;;;;;0.00;0.00;;;;;;;9.97;40.75;100932.00;16799998;26;20040;-76
2024/04/23 18:26:07;;;;;;;0.00;0.00;;;;;;;9.79;43.46;100954.03;16808558;26;20038;-76
2024/04/23 18:33:45;;;;;;;0.00;0.00;;;;;;;9.79;44.76;100950.50;16850804;26;20663;-76
2024/04/23 18:41:25;;;;;;;0.00;0.00;;;;;;;9.42;44.49;100944.56;16865299;26;19995;-79
2024/04/23 18:49:05;;;;;;;0.00;0.00;;;;;;;9.28;44.22;100940.13;16878833;26;20082;-77
2024/04/23 18:56:54;;;;;;;0.10;0.10;;;;;;;8.49;45.54;100930.50;16812155;26;20015;-77
2024/04/23 19:04:32;;;;;;;0.00;0.00;;;;;;;8.78;44.69;100936.72;16791704;26;20011;-77
2024/04/23 19:12:11;;;;;;;0.25;0.25;;;;;;;8.75;44.28;100919.19;16740170;26;20051;-77
2024/04/23 19:19:47;;;;;;;0.13;0.13;;;;;;;8.81;44.90;100902.38;16758493;26;20032;-80
2024/04/23 19:27:26;;;;;;;1.65;0.90;;;;;;;8.56;44.90;100891.25;16841495;26;19999;-80
2024/04/23 19:35:01;;;;;;;0.30;0.30;;;;;;;8.44;45.78;100900.81;16801693;26;20007;-81
2024/04/23 19:42:41;;;;;;;0.15;0.15;;;;;;;8.98;45.24;100892.16;16858052;26;20007;-81
2024/04/23 19:50:20;;;;;;;0.25;0.25;;;;;;;8.84;46.33;100885.06;16881626;26;20154;-79
2024/04/23 20:05:49;;;;;;;0.45;0.38;;;;;;;8.22;47.93;100849.16;16825697;26;20020;-79
2024/04/23 20:13:30;;;;;;;0.00;0.00;;;;;;;8.23;48.19;100833.94;16896992;26;20004;-81
2024/04/23 20:21:13;;;;;;;0.00;0.00;;;;;;;8.53;48.70;100859.50;16792944;26;20020;-79
2024/04/23 20:28:53;;;;;;;0.30;0.27;;;;;;;8.15;50.39;100830.38;16818306;26;20018;-80
2024/04/23 20:36:33;;;;;;;0.00;0.00;;;;;;;8.35;50.49;100835.09;16814517;26;20015;-79
2024/04/23 20:44:13;;;;;;;0.00;0.00;;;;;;;8.27;50.79;100833.38;16821060;26;20003;-81
2024/04/23 20:51:52;;;;;;;0.65;0.65;;;;;;;8.13;51.64;100828.91;16873275;26;20014;-80
2024/04/23 20:59:33;;;;;;;0.00;0.00;;;;;;;8.03;51.42;100810.53;16852080;26;20011;-80
2024/04/23 21:07:08;;;;;;;0.17;0.17;;;;;;;7.15;52.82;100817.78;16826901;26;19999;-81
2024/04/23 21:14:50;;;;;;;0.00;0.00;;;;;;;7.55;50.60;100798.72;16801010;26;20462;-79
2024/04/23 21:22:25;;;;;;;0.00;0.00;;;;;;;7.77;51.27;100807.59;16786609;26;20000;-80
2024/04/23 21:30:04;;;;;;;0.00;0.00;;;;;;;7.31;51.73;100771.34;16785914;26;20462;-80
2024/04/23 21:37:39;;;;;;;0.50;0.22;;;;;;;7.59;51.11;100792.00;16788356;26;19999;-80
2024/04/23 21:45:17;;;;;;;0.00;0.00;;;;;;;7.09;52.25;100789.19;16804446;26;20096;-80
2024/04/23 21:52:56;;;;;;;0.00;0.00;;;;;;;6.99;52.77;100790.47;16878762;26;19996;-80
2024/04/23 22:00:34;;;;;;;0.00;0.00;;;;;;;6.78;53.45;100785.88;16801515;26;20485;-80
2024/04/23 22:08:10;;;;;;;0.17;0.17;;;;;;;6.82;53.40;100768.50;16795540;26;20010;-78
2024/04/23 22:15:54;;;;;;;0.03;0.03;;;;;;;6.22;54.19;100737.47;16766179;26;20000;-79
2024/04/23 22:23:30;;;;;;;1.67;0.47;;;;;;;6.42;54.81;100756.44;16763539;26;20010;-79
2024/04/23 22:31:09;;;;;;;0.00;0.00;;;;;;;6.46;55.15;100747.06;16779272;26;20013;-79
2024/04/23 22:38:45;;;;;;;0.00;0.00;;;;;;;6.61;54.95;100746.03;16813081;26;20035;-79
2024/04/23 22:46:23;;;;;;;0.10;0.10;;;;;;;7.03;53.87;100727.69;16728852;26;20019;-78
2024/04/23 22:54:00;;;;;;;0.20;0.20;;;;;;;6.96;56.07;100724.13;16798344;26;20010;-80
2024/04/23 23:01:38;;;;;;;0.15;0.15;;;;;;;6.63;55.97;100716.53;16860356;26;19999;-79
2024/04/23 23:09:15;;;;;;;0.93;0.63;;;;;;;6.33;56.50;100699.69;16807929;26;20010;-78
2024/04/23 23:16:53;;;;;;;0.10;0.10;;;;;;;5.89;57.35;100705.78;16785095;26;20087;-79
2024/04/23 23:24:29;;;;;;;1.75;0.50;;;;;;;5.75;57.06;100682.59;16827326;26;20007;-78
2024/04/23 23:32:08;;;;;;;0.00;0.00;;;;;;;5.89;57.91;100677.31;16837304;26;20017;-78
2024/04/23 23:39:43;;;;;;;0.10;0.10;;;;;;;6.04;58.20;100671.19;16815174;26;20058;-79
2024/04/23 23:47:23;;;;;;;0.00;0.00;;;;;;;6.39;56.22;100654.50;16777536;26;20000;-78
2024/04/23 23:54:59;;;;;;;0.00;0.00;;;;;;;5.83;57.92;100634.59;16860038;26;20015;-80
